createdAt,value
2019-05-19T00:04:30.900Z,13
2019-05-19T00:09:36.143Z,12.7
2019-05-19T00:14:41.308Z,11.7
2019-05-19T00:19:46.332Z,11.9
2019-05-19T00:24:51.308Z,12.8
2019-05-19T00:29:56.398Z,11.5
2019-05-19T00:35:01.786Z,10.6
2019-05-19T00:40:07.214Z,10.7
2019-05-19T00:45:12.337Z,10.8
2019-05-19T00:50:17.595Z,12.5
2019-05-19T00:55:21.121Z,10.2
2019-05-19T01:00:26.515Z,11.3
2019-05-19T01:05:29.992Z,11.1
2019-05-19T01:10:34.986Z,11.8
2019-05-19T01:15:38.521Z,11.7
2019-05-19T01:20:43.670Z,12.1
2019-05-19T01:25:48.990Z,12.2
2019-05-19T01:30:54.109Z,11.7
2019-05-19T01:35:59.106Z,11.9
2019-05-19T01:41:04.378Z,12.5
2019-05-19T01:46:09.500Z,12.8
2019-05-19T01:51:13.043Z,12.3
2019-05-19T01:56:18.166Z,12.3
2019-05-19T02:01:21.953Z,12.2
2019-05-19T02:06:25.427Z,12.3
2019-05-19T02:11:29.018Z,12.6
2019-05-19T02:16:34.236Z,12.4
2019-05-19T02:21:39.468Z,12.4
2019-05-19T02:26:44.896Z,12.5
2019-05-19T02:31:50.284Z,12.8
2019-05-19T02:36:53.991Z,12.6
2019-05-19T02:41:59.643Z,12.3
2019-05-19T02:47:04.651Z,12.2
2019-05-19T02:52:09.776Z,13.1
2019-05-19T02:57:14.950Z,13.3
2019-05-19T03:02:19.991Z,13.7
2019-05-19T03:07:25.066Z,13
2019-05-19T03:12:30.352Z,13.1
2019-05-19T03:17:35.304Z,13.4
2019-05-19T03:22:40.430Z,13.6
2019-05-19T03:27:45.480Z,13.9
2019-05-19T03:32:49.506Z,13.6
2019-05-19T03:37:54.480Z,13.7
2019-05-19T03:42:58.271Z,13.3
2019-05-19T03:48:03.349Z,12.8
2019-05-19T03:53:08.387Z,12.6
2019-05-19T03:58:12.088Z,12.7
2019-05-19T04:03:17.536Z,13.6
2019-05-19T04:08:22.953Z,12.9
2019-05-19T04:13:28.208Z,12.5
2019-05-19T04:18:33.067Z,12.4
2019-05-19T04:23:38.193Z,12.4
2019-05-19T04:28:43.288Z,12.9
2019-05-19T04:33:48.377Z,12.7
2019-05-19T04:38:53.294Z,12.8
2019-05-19T04:43:58.541Z,13.7
2019-05-19T04:49:03.778Z,18.1
2019-05-19T04:54:08.986Z,23.3
2019-05-19T04:59:11.384Z,18.4
2019-05-19T05:04:15.403Z,19.3
2019-05-19T05:09:20.293Z,17.6
2019-05-19T05:14:25.778Z,17.8
2019-05-19T05:19:31.072Z,15.7
2019-05-19T05:24:36.311Z,12.6
2019-05-19T05:29:41.479Z,11.1
2019-05-19T05:34:46.612Z,13
2019-05-19T05:39:51.598Z,12.2
2019-05-19T05:44:56.815Z,11.7
2019-05-19T05:50:01.905Z,11.5
2019-05-19T05:55:07.265Z,12.1
2019-05-19T06:00:15.629Z,11.5
2019-05-19T06:05:21.615Z,11.7
2019-05-19T06:10:26.772Z,11.9
2019-05-19T06:15:32.104Z,11.9
2019-05-19T06:20:38.977Z,11.8
2019-05-19T06:25:44.358Z,15.8
2019-05-19T06:30:47.880Z,12
2019-05-19T06:35:52.939Z,12.8
2019-05-19T06:40:52.880Z,11.7
2019-05-19T06:45:57.790Z,12.2
2019-05-19T06:51:01.253Z,11.2
2019-05-19T06:56:06.332Z,11.1
2019-05-19T07:01:11.308Z,10.9
2019-05-19T07:06:14.800Z,9.6
2019-05-19T07:11:18.326Z,9.9
2019-05-19T07:16:22.037Z,9.9
2019-05-19T07:21:27.570Z,9.9
2019-05-19T07:26:32.971Z,8.4
2019-05-19T07:31:38.027Z,8.5
2019-05-19T07:36:43.081Z,7.7
2019-05-19T07:41:47.983Z,7.4
2019-05-19T07:46:52.986Z,8.6
2019-05-19T07:51:57.956Z,6.8
2019-05-19T07:57:03.152Z,6.4
2019-05-19T08:02:12.995Z,6.4
2019-05-19T08:07:18.017Z,6.4
2019-05-19T08:12:23.112Z,6.1
2019-05-19T08:17:28.130Z,6.2
2019-05-19T08:22:33.228Z,5.3
2019-05-19T08:27:38.359Z,5
2019-05-19T08:32:43.246Z,4.5
2019-05-19T08:37:48.352Z,3.8
2019-05-19T08:42:53.420Z,4.8
2019-05-19T08:47:58.459Z,5.2
2019-05-19T08:53:04.026Z,5.1
2019-05-19T08:58:09.308Z,4.8
2019-05-19T09:03:14.269Z,3.3
2019-05-19T09:08:19.310Z,3.7
2019-05-19T09:13:24.297Z,3.7
2019-05-19T09:18:27.953Z,3.9
2019-05-19T09:23:33.038Z,3.8
2019-05-19T09:28:38.174Z,3.4
2019-05-19T09:33:43.271Z,3.6
2019-05-19T09:38:48.208Z,3.1
2019-05-19T09:43:55.953Z,2.7
2019-05-19T09:49:01.287Z,3.1
2019-05-19T09:54:06.153Z,2.9
2019-05-19T09:59:11.718Z,2.9
2019-05-19T10:04:16.740Z,3.1
2019-05-19T10:09:21.730Z,2.7
2019-05-19T10:14:26.531Z,2.6
2019-05-19T10:19:31.813Z,2.7
2019-05-19T10:24:35.759Z,2.9
2019-05-19T10:29:40.792Z,2.8
2019-05-19T10:34:45.869Z,2.7
2019-05-19T10:39:50.864Z,2.8
2019-05-19T10:44:55.858Z,2.8
2019-05-19T10:50:01.100Z,2.7
2019-05-19T10:55:06.020Z,2.7
2019-05-19T11:00:12.619Z,2.8
2019-05-19T11:05:18.894Z,3
2019-05-19T11:10:24.062Z,2.8
2019-05-19T11:15:28.932Z,2.9
2019-05-19T11:20:32.423Z,2.6
2019-05-19T11:25:49.253Z,2.9
2019-05-19T11:30:36.867Z,2.8
2019-05-19T11:35:41.692Z,2.7
2019-05-19T11:40:46.838Z,2.8
2019-05-19T11:45:51.829Z,2.9
2019-05-19T11:50:59.552Z,2.9
2019-05-19T11:56:11.091Z,2.7
2019-05-19T12:01:06.621Z,2.9
2019-05-19T12:06:14.610Z,3.3
2019-05-19T12:11:19.775Z,3
2019-05-19T12:16:24.682Z,3.2
2019-05-19T12:21:28.179Z,3
2019-05-19T12:26:35.636Z,2.9
2019-05-19T12:31:40.936Z,3.3
2019-05-19T12:36:45.873Z,3
2019-05-19T12:41:51.164Z,2.8
2019-05-19T12:46:56.100Z,2.9
2019-05-19T12:52:01.134Z,3
2019-05-19T12:57:06.203Z,2.6
2019-05-19T13:02:11.543Z,2.7
2019-05-19T13:07:17.187Z,2.5
2019-05-19T13:12:22.583Z,3
2019-05-19T13:17:27.472Z,2.9
2019-05-19T13:22:33.890Z,2.9
2019-05-19T13:27:41.651Z,3.2
2019-05-19T13:32:46.810Z,2.8
2019-05-19T13:37:52.107Z,2.8
2019-05-19T13:42:57.360Z,2.6
2019-05-19T13:48:02.692Z,2.9
2019-05-19T13:53:07.973Z,2.6
2019-05-19T13:58:12.943Z,2.7
2019-05-19T14:03:20.856Z,2.5
2019-05-19T14:08:26.041Z,2.4
2019-05-19T14:13:32.620Z,2.5
2019-05-19T14:18:37.677Z,2.7
2019-05-19T14:23:42.778Z,2.5
2019-05-19T14:28:47.837Z,2.4
2019-05-19T14:33:52.819Z,2.3
2019-05-19T14:38:57.893Z,2.4
2019-05-19T14:44:03.364Z,2.3
2019-05-19T14:49:13.171Z,2.5
2019-05-19T14:54:13.144Z,2.5
2019-05-19T14:59:18.135Z,2.1
2019-05-19T15:04:23.312Z,2.3
2019-05-19T15:09:28.239Z,2.5
2019-05-19T15:14:33.710Z,2.7
2019-05-19T15:19:38.603Z,2.6
2019-05-19T15:24:44.241Z,2.6
2019-05-19T15:29:49.809Z,2.8
2019-05-19T15:34:57.247Z,2.6
2019-05-19T15:40:01.424Z,2.7
2019-05-19T15:45:05.144Z,2.5
2019-05-19T15:50:10.318Z,2.7
2019-05-19T15:55:15.562Z,3
2019-05-19T16:00:20.428Z,2.8
2019-05-19T16:05:25.500Z,2.8
2019-05-19T16:10:31.893Z,3.2
2019-05-19T16:15:38.374Z,3.3
2019-05-19T16:20:43.588Z,3.6
2019-05-19T16:25:48.544Z,3.4
2019-05-19T16:30:53.607Z,3.3
2019-05-19T16:35:58.741Z,2.9
2019-05-19T16:41:03.768Z,2.8
2019-05-19T16:46:13.677Z,4.5
2019-05-19T16:51:21.720Z,4.1
2019-05-19T16:56:27.704Z,4
2019-05-19T17:01:33.260Z,4
2019-05-19T17:06:42.404Z,4.6
2019-05-19T17:11:50.249Z,4.6
2019-05-19T17:16:55.584Z,4.6
2019-05-19T17:22:00.709Z,4.4
2019-05-19T17:27:05.726Z,4.1
2019-05-19T17:32:10.854Z,5.3
2019-05-19T17:37:13.979Z,4.5
2019-05-19T17:42:18.752Z,4.9
2019-05-19T17:47:24.056Z,5.1
2019-05-19T17:52:29.866Z,4.7
2019-05-19T17:57:29.545Z,4.7
2019-05-19T18:02:34.349Z,4.3
2019-05-19T18:07:38.251Z,13.1
2019-05-19T18:12:41.835Z,16.3
2019-05-19T18:17:48.211Z,8.9
2019-05-19T18:22:56.198Z,23.5
2019-05-19T18:28:04.244Z,12.9
2019-05-19T18:33:09.300Z,7
2019-05-19T18:38:15.694Z,7.7
2019-05-19T18:43:20.612Z,9.8
2019-05-19T18:48:27.105Z,5.8
2019-05-19T18:53:32.109Z,4.7
2019-05-19T18:58:37.312Z,4.9
2019-05-19T19:03:42.671Z,4.7
2019-05-19T19:08:48.115Z,5.2
2019-05-19T19:13:53.295Z,5.2
2019-05-19T19:18:58.541Z,5.6
2019-05-19T19:24:03.866Z,6.6
2019-05-19T19:29:09.351Z,9
2019-05-19T19:34:14.515Z,16.4
2019-05-19T19:39:19.608Z,13.8
2019-05-19T19:44:24.656Z,9.4
2019-05-19T19:49:29.711Z,16
2019-05-19T19:54:33.315Z,16
2019-05-19T19:59:38.430Z,12.4
2019-05-19T20:04:43.636Z,10.3
2019-05-19T20:09:49.294Z,8.6
2019-05-19T20:14:54.377Z,9.1
2019-05-19T20:19:59.417Z,8.7
2019-05-19T20:24:59.535Z,9.6
2019-05-19T20:30:04.504Z,9.7
2019-05-19T20:35:10.018Z,8.8
2019-05-19T20:40:15.144Z,8.7
2019-05-19T20:45:20.367Z,7.7
2019-05-19T20:50:25.543Z,8.1
2019-05-19T20:55:30.529Z,8.7
2019-05-19T21:00:51.805Z,8.8
2019-05-19T21:05:37.259Z,9.3
2019-05-19T21:10:42.243Z,9.7
2019-05-19T21:15:47.439Z,9.2
2019-05-19T21:20:55.207Z,8.8
2019-05-19T21:26:00.507Z,8.2
2019-05-19T21:31:07.192Z,9.6
2019-05-19T21:36:12.344Z,9.8
2019-05-19T21:41:17.398Z,9.1
2019-05-19T21:46:22.349Z,8.5
2019-05-19T21:51:27.298Z,8.9
2019-05-19T21:56:32.225Z,10.5
2019-05-19T22:01:42.513Z,10
2019-05-19T22:06:37.645Z,8.4
2019-05-19T22:11:42.981Z,7.3
2019-05-19T22:16:48.427Z,7.7
2019-05-19T22:21:53.591Z,9.3
2019-05-19T22:26:58.528Z,9.8
2019-05-19T22:32:03.763Z,10.5
2019-05-19T22:37:08.841Z,10.4
2019-05-19T22:42:13.923Z,10.3
2019-05-19T22:47:19.100Z,9.4
2019-05-19T22:52:24.212Z,9.2
2019-05-19T22:57:29.118Z,9.7
2019-05-19T23:02:34.401Z,8.6
2019-05-19T23:07:38.443Z,8.2
2019-05-19T23:12:42.127Z,5.8
2019-05-19T23:17:47.431Z,6.3
2019-05-19T23:22:52.421Z,6.6
2019-05-19T23:27:57.416Z,5.5
2019-05-19T23:33:02.587Z,4.3
2019-05-19T23:38:07.623Z,3.1
2019-05-19T23:43:12.845Z,2.5
2019-05-19T23:48:16.503Z,2.1
2019-05-19T23:53:21.866Z,2.4
2019-05-19T23:58:26.770Z,2.3
